Time;durP1;ratioP1;P1;durP2;ratioP2;P2;SDS_P1;SDS_P2;PMS_P1;PMS_P2;Temp;Humidity;BMP_temperature;BMP_pressure;BME280_temperature;BME280_humidity;BME280_pressure;Samples;Min_cycle;Max_cycle;Signal;HPM_P1;HPM_P2
2023/10/08 00:01:35;;;;;;;9.55;8.55;;;;;;;10.68;100.00;97089.38;6309003;22;20010;-80
2023/10/08 00:04:04;;;;;;;9.57;8.63;;;;;;;10.70;100.00;97087.47;6309013;22;20023;-80
2023/10/08 00:06:30;;;;;;;9.38;8.45;;;;;;;10.68;100.00;97092.00;6308448;22;20286;-80
2023/10/08 00:08:59;;;;;;;8.75;7.95;;;;;;;10.66;100.00;97099.16;6308626;22;19999;-80
2023/10/08 00:11:29;;;;;;;8.98;8.07;;;;;;;10.59;100.00;97083.81;6308889;22;20462;-80
2023/10/08 00:13:56;;;;;;;8.05;7.35;;;;;;;10.56;100.00;97091.91;6308512;22;20098;-80
2023/10/08 00:16:22;;;;;;;9.68;8.75;;;;;;;10.59;100.00;97085.59;6307720;22;19999;-80
2023/10/08 00:18:50;;;;;;;9.43;8.52;;;;;;;10.62;100.00;97092.44;6309004;22;20003;-81
2023/10/08 00:21:17;;;;;;;9.38;8.48;;;;;;;10.62;100.00;97088.03;6280698;22;20013;-80
2023/10/08 00:23:52;;;;;;;9.75;8.35;;;;;;;10.60;100.00;97093.38;6308775;22;20003;-80
2023/10/08 00:26:30;;;;;;;9.55;8.13;;;;;;;10.56;100.00;97081.38;6308588;22;19999;-80
2023/10/08 00:28:59;;;;;;;9.80;8.15;;;;;;;10.53;100.00;97084.25;6308365;22;19995;-80
2023/10/08 00:31:30;;;;;;;9.27;8.27;;;;;;;10.54;100.00;97079.81;6308487;22;20413;-81
2023/10/08 00:33:56;;;;;;;9.68;8.68;;;;;;;10.49;100.00;97082.75;6309159;22;19995;-80
2023/10/08 00:36:23;;;;;;;9.70;8.80;;;;;;;10.48;100.00;97074.97;6308394;22;20007;-80
2023/10/08 00:38:58;;;;;;;9.32;8.43;;;;;;;10.51;100.00;97080.88;6308464;22;20321;-81
2023/10/08 00:41:27;;;;;;;9.25;8.35;;;;;;;10.51;100.00;97078.25;6308610;22;20055;-81
2023/10/08 00:43:55;;;;;;;9.32;8.43;;;;;;;10.49;100.00;97077.47;6308296;22;20022;-80
2023/10/08 00:46:27;;;;;;;10.05;8.95;;;;;;;10.46;100.00;97077.69;6308667;22;19995;-80
2023/10/08 00:48:57;;;;;;;9.95;8.93;;;;;;;10.41;100.00;97080.69;6308823;22;20376;-81
2023/10/08 00:53:58;;;;;;;9.18;8.20;;;;;;;10.35;100.00;97078.41;6281807;22;20038;-80
2023/10/08 00:56:46;;;;;;;10.52;8.85;;;;;;;10.29;100.00;97082.34;6308146;22;20035;-80
2023/10/08 00:59:15;;;;;;;9.32;8.52;;;;;;;10.28;100.00;97074.53;6308169;22;20001;-81
2023/10/08 01:01:51;;;;;;;10.02;8.45;;;;;;;10.20;100.00;97067.16;6306223;22;20079;-80
2023/10/08 01:04:26;;;;;;;9.25;8.45;;;;;;;10.17;100.00;97062.97;6307656;22;20015;-80
2023/10/08 01:07:00;;;;;;;11.48;8.55;;;;;;;10.16;100.00;97066.53;6307068;22;20011;-80
2023/10/08 01:09:32;;;;;;;11.73;8.90;;;;;;;10.15;100.00;97066.66;6281549;22;20082;-80
2023/10/08 01:12:22;;;;;;;9.43;8.52;;;;;;;10.17;100.00;97062.97;6308525;22;20072;-81
2023/10/08 01:14:53;;;;;;;9.75;8.55;;;;;;;10.16;100.00;97066.53;6307624;22;19996;-81
2023/10/08 01:17:19;;;;;;;9.55;8.45;;;;;;;10.12;100.00;97064.22;6283406;22;20302;-81
2023/10/08 01:19:56;;;;;;;10.80;8.57;;;;;;;10.06;100.00;97060.22;6282492;22;20010;-80
2023/10/08 01:22:22;;;;;;;9.43;8.40;;;;;;;10.07;100.00;97055.81;6309902;22;20014;-80
2023/10/08 01:24:48;;;;;;;9.57;8.55;;;;;;;10.03;100.00;97040.22;6309994;22;19999;-80
2023/10/08 01:27:21;;;;;;;9.43;8.43;;;;;;;10.00;100.00;97047.50;6309445;22;19999;-81
2023/10/08 01:29:47;;;;;;;10.93;8.48;;;;;;;9.96;100.00;97038.97;6308830;22;20060;-81
2023/10/08 01:32:16;;;;;;;11.77;9.32;;;;;;;9.94;100.00;97038.22;6309050;22;19995;-80
2023/10/08 01:34:45;;;;;;;11.63;9.10;;;;;;;9.92;100.00;97037.50;6308501;22;20017;-80
2023/10/08 01:37:13;;;;;;;9.68;8.63;;;;;;;9.88;100.00;97033.38;6309676;22;20006;-80
2023/10/08 01:39:42;;;;;;;9.48;8.60;;;;;;;9.87;100.00;97034.34;6309815;22;20028;-80
2023/10/08 01:42:16;;;;;;;11.57;8.90;;;;;;;9.85;100.00;97033.59;6309947;22;20066;-77
2023/10/08 01:44:45;;;;;;;10.63;9.48;;;;;;;9.85;100.00;97030.97;6309760;22;20022;-76
2023/10/08 01:47:11;;;;;;;10.85;8.93;;;;;;;9.85;100.00;97030.97;6285205;22;20006;-77
2023/10/08 01:49:38;;;;;;;10.25;9.07;;;;;;;9.78;100.00;97027.91;6312116;22;20086;-76
2023/10/08 01:52:07;;;;;;;9.98;8.98;;;;;;;9.75;100.00;97028.94;6284243;22;20037;-76
2023/10/08 01:54:35;;;;;;;10.27;9.25;;;;;;;9.75;100.00;97034.22;6311718;22;20003;-77
2023/10/08 01:57:01;;;;;;;9.75;8.75;;;;;;;9.71;100.00;97038.00;6311955;22;20003;-77
2023/10/08 01:59:26;;;;;;;10.90;9.32;;;;;;;9.67;100.00;97033.91;6311571;22;20017;-77
2023/10/08 02:01:55;;;;;;;13.05;9.05;;;;;;;9.66;100.00;97037.47;6311967;22;20010;-77
2023/10/08 02:04:21;;;;;;;10.18;9.13;;;;;;;9.67;100.00;97038.31;6311599;22;20023;-77
2023/10/08 02:06:47;;;;;;;9.90;8.35;;;;;;;9.64;100.00;97039.38;6311737;22;20051;-77
2023/10/08 02:09:13;;;;;;;10.75;9.23;;;;;;;9.64;100.00;97033.25;6311745;22;20023;-76
2023/10/08 02:11:53;;;;;;;11.15;8.68;;;;;;;9.66;100.00;97026.97;6284627;22;20450;-77
2023/10/08 02:14:20;;;;;;;14.35;10.05;;;;;;;9.64;100.00;97018.34;6311054;22;20010;-77
2023/10/08 02:16:46;;;;;;;10.70;9.57;;;;;;;9.59;100.00;97030.91;6311821;22;20003;-77
2023/10/08 02:19:13;;;;;;;13.07;9.65;;;;;;;9.56;100.00;97031.13;6311685;22;20044;-77
2023/10/08 02:21:39;;;;;;;10.82;9.63;;;;;;;9.55;100.00;97029.44;6311629;22;20413;-77
2023/10/08 02:24:07;;;;;;;10.90;9.15;;;;;;;9.57;100.00;97027.56;6284141;22;20010;-76
2023/10/08 02:26:34;;;;;;;12.32;9.95;;;;;;;9.54;100.00;97038.28;6311539;22;20003;-77
2023/10/08 02:29:00;;;;;;;13.95;9.85;;;;;;;9.52;100.00;97029.66;6311352;22;19995;-76
2023/10/08 02:31:26;;;;;;;13.38;9.60;;;;;;;9.55;100.00;97024.19;6311689;22;19995;-77
2023/10/08 02:33:51;;;;;;;12.13;10.68;;;;;;;9.56;100.00;97028.50;6284259;22;20003;-77
2023/10/08 02:36:17;;;;;;;9.90;9.00;;;;;;;9.54;100.00;97014.63;6311547;22;20003;-77
2023/10/08 02:38:42;;;;;;;10.32;9.15;;;;;;;9.52;100.00;97019.16;6311011;22;19999;-77
2023/10/08 02:41:08;;;;;;;11.40;9.63;;;;;;;9.48;100.00;97012.41;6311063;22;20003;-77
2023/10/08 02:43:36;;;;;;;10.68;9.68;;;;;;;9.50;100.00;97021.03;6310926;22;20066;-76
2023/10/08 02:46:06;;;;;;;10.65;9.65;;;;;;;9.49;100.00;97011.47;6310914;22;20051;-77
2023/10/08 02:48:34;;;;;;;10.05;9.05;;;;;;;9.49;100.00;97014.91;6310183;22;19995;-77
2023/10/08 02:51:07;;;;;;;11.55;9.48;;;;;;;9.44;100.00;97011.75;6310915;22;20425;-77
2023/10/08 02:53:33;;;;;;;10.65;9.00;;;;;;;9.38;100.00;97007.75;6311514;22;20070;-77
2023/10/08 02:55:58;;;;;;;9.63;8.73;;;;;;;9.37;100.00;97013.94;6283535;22;20022;-77
2023/10/08 02:58:27;;;;;;;10.55;9.23;;;;;;;9.27;100.00;97015.53;6310964;22;20440;-77
2023/10/08 03:00:53;;;;;;;10.93;9.82;;;;;;;9.24;100.00;97015.72;6311253;22;20168;-77
2023/10/08 03:03:18;;;;;;;11.45;9.85;;;;;;;9.25;100.00;97017.41;6284104;22;20221;-77
2023/10/08 03:05:46;;;;;;;13.75;9.93;;;;;;;9.17;100.00;97013.50;6311133;22;20014;-77
2023/10/08 03:08:12;;;;;;;10.48;9.45;;;;;;;9.18;100.00;97009.06;6310496;22;19999;-77
2023/10/08 03:10:39;;;;;;;12.80;9.57;;;;;;;9.22;100.00;97007.09;6311003;22;20070;-77
2023/10/08 03:13:06;;;;;;;13.02;9.32;;;;;;;9.18;100.00;97006.44;6310170;22;20063;-77
2023/10/08 03:15:46;;;;;;;13.35;9.98;;;;;;;9.16;100.00;97003.09;6310957;22;20003;-77
2023/10/08 03:18:15;;;;;;;12.18;9.32;;;;;;;9.17;100.00;97012.66;6310806;22;20294;-76
2023/10/08 03:20:45;;;;;;;10.73;9.10;;;;;;;9.14;100.00;97008.44;6283481;22;19999;-77
2023/10/08 03:23:23;;;;;;;10.40;9.30;;;;;;;9.16;100.00;97010.97;6311123;22;19995;-77
2023/10/08 03:25:58;;;;;;;12.18;10.90;;;;;;;9.20;100.00;97003.75;6310933;22;20342;-77
2023/10/08 03:28:24;;;;;;;13.63;9.45;;;;;;;9.19;100.00;97004.69;6310652;22;20062;-77
2023/10/08 03:31:13;;;;;;;10.20;9.20;;;;;;;9.16;100.00;97009.16;6310890;22;20018;-76
2023/10/08 03:33:39;;;;;;;12.85;9.85;;;;;;;9.11;100.00;97006.00;6311030;22;20006;-77
2023/10/08 03:36:20;;;;;;;12.38;9.48;;;;;;;9.11;100.00;97010.44;6310635;22;19999;-77
2023/10/08 03:38:56;;;;;;;11.10;9.45;;;;;;;9.06;100.00;97008.09;6311122;22;19995;-77
2023/10/08 03:41:27;;;;;;;14.15;9.98;;;;;;;9.06;100.00;97004.63;6310499;22;20003;-77
2023/10/08 03:44:01;;;;;;;10.20;9.20;;;;;;;9.05;100.00;97005.56;6310185;22;20003;-77
2023/10/08 03:46:29;;;;;;;10.02;9.07;;;;;;;9.07;100.00;97009.78;6310548;22;20019;-77
2023/10/08 03:48:57;;;;;;;9.70;8.75;;;;;;;9.05;100.00;97008.19;6310768;22;20421;-77
2023/10/08 03:51:27;;;;;;;10.40;9.40;;;;;;;9.05;100.00;97010.81;6310650;22;20299;-77
2023/10/08 03:54:06;;;;;;;11.73;9.80;;;;;;;9.03;100.00;97005.69;6311006;22;19995;-77
2023/10/08 03:56:36;;;;;;;10.35;8.73;;;;;;;9.02;100.00;97006.63;6310741;22;20021;-77
2023/10/08 03:59:12;;;;;;;10.93;9.82;;;;;;;8.98;100.00;97013.84;6310272;22;20018;-77
2023/10/08 04:01:44;;;;;;;9.80;8.80;;;;;;;8.92;100.00;97010.78;6310869;22;20010;-77
2023/10/08 04:04:14;;;;;;;10.57;9.40;;;;;;;8.88;100.00;97018.84;6309939;22;20043;-77
2023/10/08 04:06:51;;;;;;;10.15;9.10;;;;;;;8.85;100.00;97018.22;6310967;22;19995;-77
2023/10/08 04:11:51;;;;;;;11.38;10.20;;;;;;;8.84;100.00;97006.88;6310297;22;20003;-77
2023/10/08 04:14:21;;;;;;;15.32;10.75;;;;;;;8.83;100.00;97010.44;6310201;22;20089;-76
2023/10/08 04:16:51;;;;;;;10.43;9.32;;;;;;;8.82;100.00;97005.25;6309935;22;20297;-76
2023/10/08 04:19:18;;;;;;;11.15;9.93;;;;;;;8.82;100.00;97008.75;6310819;22;20197;-76
2023/10/08 04:21:44;;;;;;;12.98;10.00;;;;;;;8.84;100.00;96998.13;6310400;22;20000;-76
2023/10/08 04:24:11;;;;;;;10.73;9.68;;;;;;;8.86;100.00;96991.84;6310288;22;19999;-77
2023/10/08 04:26:39;;;;;;;10.13;9.20;;;;;;;8.86;100.00;96986.59;6310345;22;20010;-76
2023/10/08 04:29:06;;;;;;;12.65;10.13;;;;;;;8.85;100.00;96989.34;6309905;22;20011;-76
2023/10/08 04:31:46;;;;;;;13.68;9.55;;;;;;;8.85;100.00;96984.09;6283278;22;20053;-77
2023/10/08 04:34:22;;;;;;;10.63;9.50;;;;;;;8.84;100.00;96987.63;6310376;22;20312;-77
2023/10/08 04:36:54;;;;;;;10.65;9.55;;;;;;;8.83;100.00;96981.53;6309960;22;20003;-77
2023/10/08 04:39:31;;;;;;;12.55;10.25;;;;;;;8.82;100.00;96987.75;6310110;22;20027;-77
2023/10/08 04:41:59;;;;;;;10.07;8.48;;;;;;;8.78;100.00;96986.25;6310385;22;19995;-77
2023/10/08 04:44:25;;;;;;;10.65;9.25;;;;;;;8.76;100.00;96995.16;6309859;22;20428;-77
2023/10/08 04:46:52;;;;;;;12.95;9.60;;;;;;;8.73;100.00;96999.69;6310145;22;20010;-76
2023/10/08 04:49:27;;;;;;;11.50;9.02;;;;;;;8.72;100.00;96997.13;6310500;22;19995;-77
2023/10/08 04:51:58;;;;;;;10.48;9.18;;;;;;;8.73;100.00;97011.94;6310228;22;20010;-77
2023/10/08 04:54:30;;;;;;;10.93;9.45;;;;;;;8.74;100.00;97006.63;6309869;22;20014;-77
2023/10/08 04:57:01;;;;;;;11.70;9.25;;;;;;;8.74;100.00;97009.25;6310219;22;20003;-76
2023/10/08 04:59:32;;;;;;;11.80;9.57;;;;;;;8.69;100.00;97007.84;6309455;22;19999;-77
2023/10/08 05:02:18;;;;;;;10.10;9.05;;;;;;;8.67;100.00;97012.34;6309860;22;20074;-77
2023/10/08 05:07:21;;;;;;;10.65;9.55;;;;;;;8.67;100.00;97007.09;6309944;22;20311;-77
2023/10/08 05:12:37;;;;;;;10.27;9.30;;;;;;;8.64;100.00;97012.53;6310082;22;20320;-77
2023/10/08 05:20:29;;;;;;;11.10;9.27;;;;;;;8.63;100.00;96998.59;6310317;22;20397;-77
2023/10/08 05:23:05;;;;;;;11.77;9.90;;;;;;;8.64;100.00;97007.28;6285296;22;20071;-77
2023/10/08 05:25:53;;;;;;;11.68;9.95;;;;;;;8.66;100.00;97005.41;6311719;22;20355;-76
2023/10/08 05:28:24;;;;;;;12.07;9.80;;;;;;;8.66;100.00;97005.41;6311756;22;19995;-77
2023/10/08 05:31:21;;;;;;;10.13;9.00;;;;;;;8.66;100.00;97005.41;6312005;22;20027;-77
2023/10/08 05:39:29;;;;;;;10.85;9.75;;;;;;;8.57;100.00;97010.31;6288830;22;20014;-77
2023/10/08 05:42:13;;;;;;;10.65;9.52;;;;;;;8.57;100.00;97012.09;6312331;22;20005;-77
2023/10/08 05:44:43;;;;;;;10.55;9.52;;;;;;;8.56;100.00;97007.78;6311842;22;20033;-77
2023/10/08 05:50:28;;;;;;;12.70;9.95;;;;;;;8.60;100.00;97015.38;6312095;22;20440;-77
2023/10/08 05:57:52;;;;;;;11.88;9.95;;;;;;;8.54;100.00;97034.13;6311287;22;20409;-80
2023/10/08 06:00:45;;;;;;;11.23;10.05;;;;;;;8.55;100.00;97040.22;6311298;22;20068;-80
2023/10/08 06:03:09;;;;;;;;;;;;;;;8.53;100.00;97040.34;6312173;22;20043;-80
2023/10/08 06:05:43;;;;;;;10.73;9.63;;;;;;;8.52;100.00;97040.41;6311614;22;19933;-81
2023/10/08 06:08:14;;;;;;;10.52;9.23;;;;;;;8.57;100.00;97043.59;6311989;22;19999;-80
2023/10/08 06:18:28;;;;;;;11.07;9.73;;;;;;;8.57;100.00;97052.31;6311910;22;19999;-80
2023/10/08 06:21:00;;;;;;;13.60;9.15;;;;;;;8.56;100.00;97053.25;6310870;22;19999;-80
2023/10/08 06:23:28;;;;;;;11.27;10.20;;;;;;;8.60;100.00;97046.00;6311412;22;19999;-80
2023/10/08 06:25:58;;;;;;;10.75;9.63;;;;;;;8.65;100.00;97056.22;6311211;22;20077;-80
2023/10/08 06:28:25;;;;;;;14.75;10.50;;;;;;;8.67;100.00;97051.72;6312189;22;20459;-80
2023/10/08 06:30:55;;;;;;;12.73;9.80;;;;;;;8.72;100.00;97054.91;6312588;22;20149;-80
2023/10/08 06:33:22;;;;;;;12.25;9.50;;;;;;;8.72;100.00;97062.78;6311520;22;20003;-80
2023/10/08 06:36:13;;;;;;;11.73;10.45;;;;;;;8.73;100.00;97053.97;6311088;22;20048;-80
2023/10/08 06:38:48;;;;;;;14.23;12.77;;;;;;;8.79;100.00;97055.34;6311722;22;19995;-80
2023/10/08 06:43:48;;;;;;;11.68;9.88;;;;;;;8.87;100.00;97061.00;6312076;22;20035;-80
2023/10/08 06:46:14;;;;;;;13.35;9.25;;;;;;;8.91;100.00;97061.63;6311969;22;19995;-81
2023/10/08 06:48:44;;;;;;;11.02;9.63;;;;;;;8.96;100.00;97059.56;6311800;22;20412;-81
2023/10/08 06:51:13;;;;;;;12.85;10.57;;;;;;;8.97;100.00;97059.44;6311706;22;20027;-80
2023/10/08 06:53:39;;;;;;;10.82;9.50;;;;;;;8.99;100.00;97059.38;6311021;22;19999;-80
2023/10/08 06:56:05;;;;;;;10.70;9.43;;;;;;;9.01;100.00;97054.84;6310754;22;20014;-80
2023/10/08 06:58:34;;;;;;;11.73;9.30;;;;;;;9.02;100.00;97057.34;6310219;22;19999;-80
2023/10/08 07:01:04;;;;;;;11.45;10.18;;;;;;;9.03;100.00;97064.28;6310142;22;19999;-80
2023/10/08 07:03:31;;;;;;;11.35;10.10;;;;;;;9.06;100.00;97057.16;6310581;22;20011;-80
2023/10/08 07:05:58;;;;;;;15.90;9.48;;;;;;;9.05;100.00;97065.97;6309845;22;19995;-80
2023/10/08 07:08:31;;;;;;;10.00;9.10;;;;;;;9.06;100.00;97072.91;6310389;22;20006;-80
2023/10/08 07:10:58;;;;;;;11.23;10.15;;;;;;;9.11;100.00;97068.22;6310775;22;20385;-80
2023/10/08 07:13:24;;;;;;;14.07;10.07;;;;;;;9.14;100.00;97065.41;6310440;22;19995;-81
2023/10/08 07:15:50;;;;;;;15.73;11.13;;;;;;;9.19;100.00;97067.75;6310855;22;19999;-81
2023/10/08 07:18:22;;;;;;;10.90;9.80;;;;;;;9.25;100.00;97065.53;6311085;22;20066;-81
2023/10/08 07:20:53;;;;;;;12.60;10.18;;;;;;;9.30;100.00;97060.00;6283358;22;20014;-80
2023/10/08 07:23:34;;;;;;;12.93;9.90;;;;;;;9.31;100.00;97064.31;6310286;22;20349;-82
2023/10/08 07:26:10;;;;;;;11.60;9.82;;;;;;;9.35;100.00;97064.94;6310055;22;20045;-81
2023/10/08 07:28:43;;;;;;;12.27;9.65;;;;;;;9.37;100.00;97063.06;6309135;22;20079;-81
2023/10/08 07:31:16;;;;;;;11.65;10.45;;;;;;;9.44;100.00;97062.56;6309773;22;20363;-83
2023/10/08 07:33:46;;;;;;;11.63;9.90;;;;;;;9.50;100.00;97068.34;6310869;22;20003;-80
2023/10/08 07:36:12;;;;;;;14.07;11.27;;;;;;;9.53;100.00;97073.41;6309863;22;20068;-82
2023/10/08 07:38:44;;;;;;;12.38;10.70;;;;;;;9.63;100.00;97084.16;6309680;22;19995;-80
2023/10/08 07:41:14;;;;;;;14.65;10.88;;;;;;;9.81;100.00;97084.72;6310567;22;20482;-81
2023/10/08 07:43:44;;;;;;;12.70;11.40;;;;;;;9.94;100.00;97071.56;6308505;22;20014;-81
2023/10/08 07:46:10;;;;;;;11.23;10.13;;;;;;;10.06;100.00;97077.78;6307830;22;20305;-80
2023/10/08 07:48:42;;;;;;;18.00;9.55;;;;;;;10.17;100.00;97083.16;6307493;22;20007;-81
2023/10/08 07:51:07;;;;;;;9.98;9.07;;;;;;;10.31;100.00;97088.34;6307584;22;20415;-81
2023/10/08 07:53:40;;;;;;;11.98;9.45;;;;;;;10.45;100.00;97095.31;6308826;22;20010;-84
2023/10/08 07:56:10;;;;;;;11.63;9.13;;;;;;;10.55;100.00;97092.88;6310119;22;20004;-82
2023/10/08 07:58:37;;;;;;;11.13;9.95;;;;;;;10.66;100.00;97097.38;6309970;22;20366;-82
2023/10/08 08:01:07;;;;;;;9.35;8.45;;;;;;;10.82;100.00;97097.13;6309952;22;20053;-81
2023/10/08 08:03:36;;;;;;;9.40;8.40;;;;;;;11.00;100.00;97099.41;6310385;22;20030;-82
2023/10/08 08:06:06;;;;;;;10.90;8.55;;;;;;;11.17;100.00;97103.47;6310028;22;19995;-82
2023/10/08 08:08:33;;;;;;;11.27;8.18;;;;;;;11.35;100.00;97105.72;6310008;22;19999;-80
2023/10/08 08:11:05;;;;;;;9.05;7.20;;;;;;;11.52;100.00;97115.03;6309908;22;20075;-81
2023/10/08 08:13:31;;;;;;;9.23;8.30;;;;;;;11.69;100.00;97124.31;6258499;22;20017;-80
2023/10/08 08:15:58;;;;;;;10.48;8.43;;;;;;;11.81;100.00;97125.22;6282410;22;20013;-81
2023/10/08 08:18:32;;;;;;;9.35;7.70;;;;;;;11.90;100.00;97129.81;6310146;22;20050;-79
2023/10/08 08:21:01;;;;;;;11.98;8.95;;;;;;;11.99;100.00;97129.13;6309667;22;19999;-81
2023/10/08 08:23:28;;;;;;;11.23;8.05;;;;;;;12.11;100.00;97135.28;6282714;22;20078;-79
2023/10/08 08:28:31;;;;;;;10.07;6.80;;;;;;;12.49;100.00;97122.78;6309833;22;20287;-80
2023/10/08 08:31:04;;;;;;;9.27;7.53;;;;;;;12.61;100.00;97132.38;6309447;22;20086;-80
2023/10/08 08:33:52;;;;;;;10.68;7.25;;;;;;;12.67;100.00;97136.34;6309197;22;20063;-80
2023/10/08 08:36:18;;;;;;;9.32;7.72;;;;;;;12.84;100.00;97135.03;6310181;22;20347;-81
2023/10/08 08:38:43;;;;;;;8.60;6.82;;;;;;;13.03;100.00;97134.41;6308130;22;20092;-80
2023/10/08 08:41:12;;;;;;;7.68;6.45;;;;;;;13.18;100.00;97127.06;6281235;22;19999;-80
2023/10/08 08:43:44;;;;;;;8.35;7.15;;;;;;;13.35;100.00;97114.25;6309451;22;20405;-80
2023/10/08 08:46:12;;;;;;;10.85;7.30;;;;;;;13.47;100.00;97099.22;6309995;22;20336;-79
2023/10/08 08:48:40;;;;;;;11.10;7.68;;;;;;;13.53;100.00;97076.72;6281638;22;20019;-79
2023/10/08 08:51:09;;;;;;;8.00;7.20;;;;;;;13.64;100.00;97082.00;6309534;22;20003;-79
2023/10/08 08:53:39;;;;;;;7.68;6.95;;;;;;;13.70;100.00;97077.97;6282609;22;20003;-79
2023/10/08 08:56:09;;;;;;;10.63;6.97;;;;;;;13.79;100.00;97085.16;6308959;22;20007;-79
2023/10/08 08:58:36;;;;;;;10.07;6.78;;;;;;;13.90;100.00;97093.03;6309864;22;20129;-80
2023/10/08 09:01:05;;;;;;;8.18;7.15;;;;;;;13.99;100.00;97090.59;6309022;22;19999;-80
2023/10/08 09:03:30;;;;;;;8.50;6.82;;;;;;;14.08;100.00;97095.09;6309359;22;20042;-79
2023/10/08 09:05:58;;;;;;;7.80;7.03;;;;;;;14.22;100.00;97095.75;6278320;22;20019;-79
2023/10/08 09:08:28;;;;;;;9.40;7.05;;;;;;;14.41;100.00;97095.00;6282754;22;20023;-80
2023/10/08 09:11:00;;;;;;;8.85;7.05;;;;;;;14.59;100.00;97082.00;6309332;22;20428;-80
2023/10/08 09:13:27;;;;;;;10.93;9.82;;;;;;;14.75;100.00;97062.97;6309410;22;20073;-79
2023/10/08 09:16:17;;;;;;;8.73;7.38;;;;;;;14.92;100.00;97044.72;6282697;22;20060;-79
2023/10/08 09:18:45;;;;;;;8.65;7.55;;;;;;;15.02;100.00;97048.25;6310195;22;20003;-79
2023/10/08 09:21:12;;;;;;;9.15;6.60;;;;;;;15.10;100.00;97077.56;6309197;22;20003;-80
2023/10/08 09:23:47;;;;;;;8.55;7.03;;;;;;;15.14;100.00;97096.72;6282328;22;20051;-79
2023/10/08 09:26:14;;;;;;;8.05;7.18;;;;;;;15.18;100.00;97077.75;6283068;22;19996;-79
2023/10/08 09:28:46;;;;;;;7.88;6.47;;;;;;;15.24;100.00;97078.16;6309165;22;20033;-79
2023/10/08 09:31:13;;;;;;;8.25;7.03;;;;;;;15.28;100.00;97074.25;6309711;22;20003;-79
2023/10/08 09:33:39;;;;;;;9.93;7.30;;;;;;;15.36;100.00;97068.25;6309624;22;19999;-79
2023/10/08 09:36:07;;;;;;;9.18;6.95;;;;;;;15.43;100.00;97061.41;6309475;22;20018;-79
2023/10/08 09:38:36;;;;;;;8.18;7.47;;;;;;;15.45;100.00;97055.00;6309520;22;20353;-79
2023/10/08 09:41:03;;;;;;;9.95;6.78;;;;;;;15.53;100.00;97053.47;6308329;22;19996;-80
2023/10/08 09:43:29;;;;;;;8.43;6.95;;;;;;;15.68;100.00;97045.91;6309251;22;20306;-80
2023/10/08 09:46:06;;;;;;;8.88;6.88;;;;;;;15.76;100.00;97046.88;6282194;22;19999;-81
2023/10/08 09:48:40;;;;;;;8.05;7.32;;;;;;;15.92;100.00;97048.16;6309763;22;19995;-77
2023/10/08 09:51:10;;;;;;;9.55;7.07;;;;;;;16.08;100.00;97041.44;6309510;22;20003;-78
2023/10/08 09:54:15;;;;;;;9.35;7.07;;;;;;;16.28;100.00;97035.06;6309818;22;20325;-80
2023/10/08 09:56:41;;;;;;;10.10;7.50;;;;;;;16.50;100.00;97042.81;6309417;22;20003;-76
2023/10/08 09:59:10;;;;;;;9.38;6.82;;;;;;;16.61;100.00;97043.47;6308872;22;19999;-77
2023/10/08 10:01:38;;;;;;;8.85;7.72;;;;;;;16.69;100.00;97040.06;6308597;22;20072;-77
2023/10/08 10:04:10;;;;;;;12.77;9.13;;;;;;;16.83;100.00;97032.59;6309180;22;20038;-77
2023/10/08 10:06:37;;;;;;;9.57;7.28;;;;;;;16.93;100.00;97008.59;6309854;22;20321;-77
2023/10/08 10:09:08;;;;;;;7.90;7.10;;;;;;;17.00;100.00;97004.38;6310593;22;20132;-77
2023/10/08 10:11:35;;;;;;;11.35;7.28;;;;;;;17.10;100.00;96999.81;6311441;22;20393;-77
2023/10/08 10:14:06;;;;;;;11.32;7.38;;;;;;;17.21;100.00;97005.91;6311533;22;20415;-77
2023/10/08 10:16:31;;;;;;;16.10;7.03;;;;;;;17.27;100.00;96992.84;6311253;22;20282;-77
2023/10/08 10:18:59;;;;;;;7.88;7.05;;;;;;;17.37;100.00;96984.78;6311719;22;20014;-76
2023/10/08 10:21:27;;;;;;;9.35;6.78;;;;;;;17.50;100.00;96987.06;6284790;22;20309;-77
2023/10/08 10:23:53;;;;;;;9.38;6.60;;;;;;;17.55;100.00;96991.91;6311643;22;20002;-76
2023/10/08 10:26:35;;;;;;;7.57;6.82;;;;;;;17.68;100.00;96987.03;6311074;22;20309;-77
2023/10/08 10:29:15;;;;;;;8.30;6.53;;;;;;;17.83;100.00;96978.47;6311142;22;20233;-77
2023/10/08 10:31:44;;;;;;;7.97;6.95;;;;;;;17.98;100.00;96976.06;6311469;22;20366;-77
2023/10/08 10:34:12;;;;;;;9.40;7.28;;;;;;;18.03;100.00;96979.97;6311792;22;19995;-77
2023/10/08 10:36:43;;;;;;;9.23;6.78;;;;;;;18.19;100.00;96983.69;6311454;22;20059;-75
2023/10/08 10:39:16;;;;;;;7.68;6.97;;;;;;;18.21;100.00;96975.56;6311060;22;20098;-77
2023/10/08 10:41:46;;;;;;;7.72;6.30;;;;;;;18.27;100.00;96978.44;6311087;22;20060;-77
2023/10/08 10:44:13;;;;;;;7.65;6.50;;;;;;;18.32;100.00;96981.44;6311085;22;19999;-77
2023/10/08 10:46:43;;;;;;;9.75;6.55;;;;;;;18.39;100.00;96983.47;6308816;22;19995;-79
2023/10/08 10:51:58;;;;;;;10.15;7.22;;;;;;;18.54;100.00;96978.34;6311107;22;20014;-75
2023/10/08 10:54:24;;;;;;;9.48;6.50;;;;;;;18.64;100.00;96984.41;6311800;22;19999;-75
2023/10/08 10:57:08;;;;;;;6.75;6.05;;;;;;;18.75;100.00;96983.28;6311396;22;20062;-75
2023/10/08 10:59:39;;;;;;;7.15;6.20;;;;;;;18.81;100.00;96977.28;6311369;22;20007;-75
2023/10/08 11:02:07;;;;;;;8.38;6.80;;;;;;;18.92;100.00;96980.66;6311039;22;20037;-75
2023/10/08 11:04:33;;;;;;;7.97;6.20;;;;;;;19.01;100.00;96982.38;6310905;22;20026;-75
2023/10/08 11:07:00;;;;;;;11.93;6.90;;;;;;;19.06;100.00;96974.72;6311366;22;19995;-75
2023/10/08 11:09:37;;;;;;;8.00;6.10;;;;;;;19.27;100.00;96973.41;6310900;22;20002;-75
2023/10/08 11:12:10;;;;;;;9.05;6.50;;;;;;;19.42;100.00;96966.41;6311031;22;19999;-75
2023/10/08 11:14:41;;;;;;;8.27;6.43;;;;;;;19.56;100.00;96958.72;6310530;22;20001;-75
2023/10/08 11:17:20;;;;;;;9.18;7.18;;;;;;;19.61;100.00;96957.22;6311129;22;20023;-75
2023/10/08 11:19:46;;;;;;;9.98;6.38;;;;;;;19.71;100.00;96946.34;6311320;22;19999;-75
2023/10/08 11:22:22;;;;;;;8.32;6.22;;;;;;;19.71;100.00;96951.69;6310434;22;20542;-76
2023/10/08 11:24:48;;;;;;;9.88;6.22;;;;;;;19.69;100.00;96950.22;6311048;22;19999;-75
2023/10/08 11:27:17;;;;;;;7.22;6.50;;;;;;;19.75;100.00;96942.31;6310780;22;19998;-76
2023/10/08 11:29:47;;;;;;;10.13;6.00;;;;;;;19.82;100.00;96942.50;6310212;22;19995;-76
2023/10/08 11:32:17;;;;;;;8.98;7.15;;;;;;;19.89;100.00;96937.31;6310848;22;20253;-76
2023/10/08 11:34:49;;;;;;;8.00;6.82;;;;;;;20.08;100.00;96932.63;6310475;22;20074;-76
2023/10/08 11:37:28;;;;;;;10.13;7.10;;;;;;;20.06;100.00;96932.78;6310833;22;20038;-76
2023/10/08 11:39:58;;;;;;;9.60;6.80;;;;;;;20.09;100.00;96931.63;6283517;22;20003;-76
2023/10/08 11:47:44;;;;;;;10.30;6.38;;;;;;;20.17;100.00;96915.53;6311060;22;20018;-77
2023/10/08 11:50:10;;;;;;;7.90;7.10;;;;;;;20.21;100.00;96913.34;6310479;22;20010;-76
2023/10/08 11:52:41;;;;;;;9.90;7.32;;;;;;;20.31;100.00;96909.47;6310499;22;20021;-76
2023/10/08 11:55:20;;;;;;;10.38;7.00;;;;;;;20.43;100.00;96901.91;6310310;22;20074;-76
2023/10/08 11:57:48;;;;;;;12.45;6.60;;;;;;;20.53;100.00;96906.19;6310247;22;20003;-75
2023/10/08 12:00:24;;;;;;;12.00;7.10;;;;;;;20.59;100.00;96898.28;6310471;22;20050;-76
2023/10/08 12:02:54;;;;;;;9.05;6.70;;;;;;;20.53;100.00;96885.63;6310401;22;20080;-76
2023/10/08 12:05:20;;;;;;;11.38;6.82;;;;;;;20.51;100.00;96887.66;6309943;22;19995;-76
2023/10/08 12:07:50;;;;;;;8.02;5.97;;;;;;;20.54;100.00;96876.59;6310373;22;20419;-76
2023/10/08 12:10:22;;;;;;;7.20;6.43;;;;;;;20.66;100.00;96881.53;6309969;22;20018;-76
2023/10/08 12:12:54;;;;;;;14.75;7.18;;;;;;;20.72;100.00;96870.13;6309721;22;20290;-76
2023/10/08 12:15:26;;;;;;;10.00;6.82;;;;;;;20.94;100.00;96875.72;6310477;22;20010;-76
2023/10/08 12:20:39;;;;;;;10.32;6.20;;;;;;;21.11;100.00;96869.22;6310357;22;20037;-76
2023/10/08 12:23:05;;;;;;;7.97;6.70;;;;;;;21.21;100.00;96865.44;6310108;22;20006;-76
2023/10/08 12:25:32;;;;;;;7.03;5.95;;;;;;;21.33;100.00;96874.69;6310464;22;20002;-77
2023/10/08 12:28:04;;;;;;;6.82;5.75;;;;;;;21.47;100.00;96868.53;6310008;22;20369;-76
2023/10/08 12:30:41;;;;;;;10.88;6.50;;;;;;;21.74;100.00;96865.47;6309766;22;20035;-76
2023/10/08 12:33:07;;;;;;;8.95;6.68;;;;;;;21.82;100.00;96868.06;6283405;22;20009;-76